BKB6 CYQU-CYLW
Flight info
| Callsign | BKB6 |
|---|---|
| Flight time | 0h 54m |
| Altitude | 31000 |
| Route | IKNOL DCT HUMEK |
| Aircraft | RJ1H/M-SDFGIRWY/LB1 |
Departure
| Time | 2026-04-27 10:36 |
|---|---|
| Airport | Grande Prairie Airport (CYQU) |
Arrival
| Time | 2026-04-27 11:30 |
|---|---|
| Airport | Kelowna International Airport (CYLW) |
| Time | Latitude | Longitude | Altitude | Speed | Heading |
|---|---|---|---|---|---|
| 2026-04-27 10:19 | 55.17673 | -118.87526 | 2200 ft | 0 kts | 44° |
| 2026-04-27 10:29 | 55.17667 | -118.87536 | 2200 ft | 4 kts | 45° |
| 2026-04-27 10:30 | 55.17649 | -118.87570 | 2200 ft | 4 kts | 57° |
| 2026-04-27 10:30 | 55.17643 | -118.87612 | 2200 ft | 4 kts | 105° |
| 2026-04-27 10:30 | 55.17652 | -118.87637 | 2200 ft | 1 kts | 134° |
| 2026-04-27 10:30 | 55.17654 | -118.87640 | 2200 ft | 0 kts | 134° |
| 2026-04-27 10:33 | 55.17648 | -118.87629 | 2200 ft | 3 kts | 134° |
| 2026-04-27 10:33 | 55.17620 | -118.87580 | 2200 ft | 9 kts | 134° |
| 2026-04-27 10:33 | 55.17565 | -118.87482 | 2200 ft | 13 kts | 134° |
| 2026-04-27 10:34 | 55.17513 | -118.87390 | 2200 ft | 1 kts | 134° |
| 2026-04-27 10:34 | 55.17505 | -118.87386 | 2200 ft | 3 kts | 184° |
| 2026-04-27 10:34 | 55.17470 | -118.87420 | 2200 ft | 9 kts | 219° |
| 2026-04-27 10:34 | 55.17414 | -118.87515 | 2200 ft | 12 kts | 224° |
| 2026-04-27 10:35 | 55.17386 | -118.87602 | 2200 ft | 7 kts | 307° |
| 2026-04-27 10:35 | 55.17479 | -118.87762 | 2200 ft | 48 kts | 315° |
| 2026-04-27 10:35 | 55.17883 | -118.88471 | 2200 ft | 114 kts | 315° |
| 2026-04-27 10:35 | 55.18561 | -118.89663 | 2265 ft | 155 kts | 319° |
| 2026-04-27 10:36 | 55.19356 | -118.91001 | 2710 ft | 159 kts | 320° |
| 2026-04-27 10:36 | 55.20154 | -118.92349 | 3422 ft | 159 kts | 318° |
| 2026-04-27 10:36 | 55.20951 | -118.93710 | 3944 ft | 163 kts | 317° |
| 2026-04-27 10:36 | 55.21746 | -118.95163 | 4043 ft | 173 kts | 303° |
| 2026-04-27 10:37 | 55.21888 | -118.97259 | 4133 ft | 184 kts | 252° |
| 2026-04-27 10:37 | 55.21081 | -118.98946 | 4271 ft | 186 kts | 205° |
| 2026-04-27 10:37 | 55.19824 | -118.99248 | 4433 ft | 185 kts | 172° |
| 2026-04-27 10:37 | 55.18549 | -118.98901 | 4595 ft | 188 kts | 165° |
| 2026-04-27 10:38 | 55.17219 | -118.98296 | 4669 ft | 206 kts | 162° |
| 2026-04-27 10:38 | 55.15827 | -118.97587 | 5035 ft | 211 kts | 161° |
| 2026-04-27 10:38 | 55.14439 | -118.96847 | 5403 ft | 216 kts | 161° |
| 2026-04-27 10:38 | 55.12989 | -118.96070 | 5797 ft | 219 kts | 162° |
| 2026-04-27 10:39 | 55.11525 | -118.95299 | 6211 ft | 221 kts | 161° |
| 2026-04-27 10:39 | 55.10048 | -118.94537 | 6607 ft | 222 kts | 162° |
| 2026-04-27 10:39 | 55.08546 | -118.93785 | 6944 ft | 228 kts | 162° |
| 2026-04-27 10:39 | 55.06995 | -118.93029 | 7275 ft | 234 kts | 163° |
| 2026-04-27 10:40 | 55.05398 | -118.92260 | 7612 ft | 242 kts | 163° |
| 2026-04-27 10:40 | 55.03739 | -118.91470 | 7912 ft | 252 kts | 163° |
| 2026-04-27 10:40 | 55.02035 | -118.90666 | 8212 ft | 262 kts | 163° |
| 2026-04-27 10:40 | 55.00250 | -118.89822 | 8517 ft | 269 kts | 163° |
| 2026-04-27 10:41 | 54.98435 | -118.88969 | 9182 ft | 272 kts | 163° |
| 2026-04-27 10:41 | 54.96597 | -118.88112 | 9896 ft | 275 kts | 164° |
| 2026-04-27 10:41 | 54.94672 | -118.87740 | 10562 ft | 282 kts | 179° |
| 2026-04-27 10:41 | 54.92682 | -118.87857 | 11241 ft | 289 kts | 181° |
| 2026-04-27 10:42 | 54.90652 | -118.88067 | 11920 ft | 295 kts | 182° |
| 2026-04-27 10:42 | 54.88586 | -118.88330 | 12541 ft | 303 kts | 182° |
| 2026-04-27 10:42 | 54.86425 | -118.88608 | 12923 ft | 318 kts | 182° |
| 2026-04-27 10:42 | 54.84177 | -118.88881 | 13340 ft | 328 kts | 182° |
| 2026-04-27 10:43 | 54.81875 | -118.89158 | 13866 ft | 334 kts | 182° |
| 2026-04-27 10:43 | 54.79541 | -118.89435 | 14371 ft | 338 kts | 182° |
| 2026-04-27 10:43 | 54.77214 | -118.89672 | 14864 ft | 341 kts | 181° |
| 2026-04-27 10:43 | 54.74835 | -118.89898 | 15365 ft | 344 kts | 181° |
| 2026-04-27 10:44 | 54.72434 | -118.90151 | 15862 ft | 347 kts | 182° |
| 2026-04-27 10:44 | 54.70011 | -118.90416 | 16338 ft | 350 kts | 182° |
| 2026-04-27 10:44 | 54.67578 | -118.90679 | 16854 ft | 351 kts | 181° |
| 2026-04-27 10:44 | 54.65130 | -118.90908 | 17309 ft | 354 kts | 181° |
| 2026-04-27 10:45 | 54.62663 | -118.91162 | 17732 ft | 356 kts | 182° |
| 2026-04-27 10:45 | 54.60181 | -118.91416 | 18161 ft | 359 kts | 182° |
| 2026-04-27 10:45 | 54.57676 | -118.91673 | 18559 ft | 361 kts | 182° |
| 2026-04-27 10:45 | 54.55162 | -118.91926 | 18914 ft | 363 kts | 182° |
| 2026-04-27 10:46 | 54.52631 | -118.92175 | 19258 ft | 365 kts | 182° |
| 2026-04-27 10:46 | 54.50089 | -118.92423 | 19607 ft | 367 kts | 182° |
| 2026-04-27 10:46 | 54.47536 | -118.92667 | 19953 ft | 369 kts | 182° |
| 2026-04-27 10:46 | 54.45834 | -118.92830 | 20179 ft | 370 kts | 182° |
| 2026-04-27 10:47 | 54.43250 | -118.93069 | 20524 ft | 372 kts | 182° |
| 2026-04-27 10:47 | 54.40657 | -118.93319 | 20864 ft | 375 kts | 182° |
| 2026-04-27 10:47 | 54.38043 | -118.93608 | 21134 ft | 379 kts | 182° |
| 2026-04-27 10:47 | 54.35399 | -118.93882 | 21364 ft | 383 kts | 182° |
| 2026-04-27 10:48 | 54.32709 | -118.94139 | 21526 ft | 390 kts | 182° |
| 2026-04-27 10:48 | 54.29998 | -118.94392 | 21893 ft | 390 kts | 182° |
| 2026-04-27 10:48 | 54.27285 | -118.94680 | 22265 ft | 390 kts | 182° |
| 2026-04-27 10:48 | 54.24572 | -118.94974 | 22648 ft | 390 kts | 182° |
| 2026-04-27 10:49 | 54.21861 | -118.95233 | 23045 ft | 390 kts | 182° |
| 2026-04-27 10:49 | 54.19153 | -118.95486 | 23433 ft | 390 kts | 182° |
| 2026-04-27 10:49 | 54.16439 | -118.95776 | 23799 ft | 390 kts | 182° |
| 2026-04-27 10:49 | 54.13733 | -118.96058 | 24090 ft | 390 kts | 182° |
| 2026-04-27 10:50 | 54.11054 | -118.96306 | 24366 ft | 391 kts | 182° |
| 2026-04-27 10:50 | 54.08331 | -118.96556 | 24600 ft | 393 kts | 182° |
| 2026-04-27 10:50 | 54.05596 | -118.96814 | 24887 ft | 393 kts | 182° |
| 2026-04-27 10:50 | 54.02861 | -118.97078 | 25174 ft | 393 kts | 182° |
| 2026-04-27 10:51 | 54.00129 | -118.97341 | 25454 ft | 393 kts | 182° |
| 2026-04-27 10:51 | 53.97395 | -118.97605 | 25715 ft | 394 kts | 182° |
| 2026-04-27 10:51 | 53.94656 | -118.97870 | 25986 ft | 394 kts | 182° |
| 2026-04-27 10:51 | 53.91920 | -118.98137 | 26245 ft | 394 kts | 182° |
| 2026-04-27 10:52 | 53.89178 | -118.98406 | 26502 ft | 394 kts | 182° |
| 2026-04-27 10:52 | 53.86425 | -118.98678 | 26692 ft | 397 kts | 182° |
| 2026-04-27 10:52 | 53.83660 | -118.98956 | 26918 ft | 398 kts | 182° |
| 2026-04-27 10:52 | 53.80896 | -118.99231 | 27145 ft | 398 kts | 181° |
| 2026-04-27 10:53 | 53.78141 | -118.99503 | 27552 ft | 395 kts | 182° |
| 2026-04-27 10:53 | 53.72688 | -119.00052 | 28054 ft | 395 kts | 181° |
| 2026-04-27 10:53 | 53.69948 | -119.00334 | 28307 ft | 394 kts | 182° |
| 2026-04-27 10:54 | 53.67203 | -119.00602 | 28538 ft | 395 kts | 181° |
| 2026-04-27 10:54 | 53.64464 | -119.00882 | 28765 ft | 394 kts | 182° |
| 2026-04-27 10:54 | 53.61721 | -119.01171 | 28993 ft | 395 kts | 181° |
| 2026-04-27 10:54 | 53.58975 | -119.01450 | 29253 ft | 394 kts | 182° |
| 2026-04-27 10:55 | 53.56232 | -119.01720 | 29474 ft | 395 kts | 181° |
| 2026-04-27 10:55 | 53.53493 | -119.01984 | 29698 ft | 395 kts | 181° |
| 2026-04-27 10:55 | 53.50779 | -119.02251 | 29990 ft | 392 kts | 181° |
| 2026-04-27 10:55 | 53.48074 | -119.02520 | 30351 ft | 389 kts | 181° |
| 2026-04-27 10:56 | 53.45375 | -119.02783 | 30514 ft | 388 kts | 181° |
| 2026-04-27 10:56 | 53.42675 | -119.03046 | 30650 ft | 389 kts | 181° |
| 2026-04-27 10:56 | 53.39956 | -119.03296 | 30644 ft | 394 kts | 180° |
| 2026-04-27 10:57 | 53.34489 | -119.03777 | 30844 ft | 393 kts | 181° |
| 2026-04-27 10:57 | 53.29004 | -119.04275 | 31110 ft | 395 kts | 182° |
| 2026-04-27 10:58 | 53.23461 | -119.04860 | 31167 ft | 404 kts | 181° |
| 2026-04-27 10:58 | 53.17783 | -119.05366 | 31168 ft | 414 kts | 181° |
| 2026-04-27 10:59 | 53.11955 | -119.05917 | 31185 ft | 424 kts | 181° |
| 2026-04-27 10:59 | 53.06035 | -119.06459 | 31139 ft | 433 kts | 182° |
| 2026-04-27 11:00 | 52.96898 | -119.07322 | 31131 ft | 442 kts | 181° |
| 2026-04-27 11:00 | 52.90728 | -119.07909 | 31109 ft | 446 kts | 181° |
| 2026-04-27 11:01 | 52.84507 | -119.08508 | 31115 ft | 449 kts | 181° |
| 2026-04-27 11:01 | 52.78265 | -119.09102 | 31091 ft | 449 kts | 181° |
| 2026-04-27 11:02 | 52.72026 | -119.09712 | 31071 ft | 449 kts | 181° |
| 2026-04-27 11:02 | 52.65805 | -119.10260 | 31069 ft | 450 kts | 181° |
| 2026-04-27 11:03 | 52.59574 | -119.10849 | 31065 ft | 446 kts | 181° |
| 2026-04-27 11:03 | 52.53370 | -119.11403 | 31049 ft | 446 kts | 181° |
| 2026-04-27 11:04 | 52.47177 | -119.11978 | 31052 ft | 447 kts | 181° |
| 2026-04-27 11:04 | 52.40915 | -119.12555 | 31064 ft | 453 kts | 181° |
| 2026-04-27 11:05 | 52.34599 | -119.13116 | 31050 ft | 455 kts | 181° |
| 2026-04-27 11:05 | 52.28277 | -119.13681 | 31049 ft | 455 kts | 181° |
| 2026-04-27 11:06 | 52.21986 | -119.14252 | 31052 ft | 455 kts | 181° |
| 2026-04-27 11:06 | 52.15663 | -119.14790 | 31028 ft | 455 kts | 181° |
| 2026-04-27 11:07 | 52.09341 | -119.15343 | 31050 ft | 455 kts | 181° |
| 2026-04-27 11:07 | 52.03026 | -119.15901 | 30992 ft | 454 kts | 181° |
| 2026-04-27 11:08 | 51.96688 | -119.16462 | 30992 ft | 457 kts | 182° |
| 2026-04-27 11:08 | 51.90326 | -119.17093 | 31006 ft | 459 kts | 182° |
| 2026-04-27 11:09 | 51.83927 | -119.17658 | 30982 ft | 459 kts | 181° |
| 2026-04-27 11:09 | 51.77585 | -119.18211 | 30992 ft | 455 kts | 181° |
| 2026-04-27 11:10 | 51.71269 | -119.18743 | 30957 ft | 454 kts | 182° |
| 2026-04-27 11:10 | 51.64957 | -119.19359 | 30970 ft | 454 kts | 181° |
| 2026-04-27 11:11 | 51.58677 | -119.19894 | 30948 ft | 453 kts | 181° |
| 2026-04-27 11:11 | 51.52355 | -119.20434 | 30962 ft | 454 kts | 181° |
| 2026-04-27 11:12 | 51.46045 | -119.21013 | 30950 ft | 454 kts | 181° |
| 2026-04-27 11:12 | 51.39779 | -119.21560 | 30943 ft | 453 kts | 182° |
| 2026-04-27 11:13 | 51.36643 | -119.21855 | 30195 ft | 453 kts | 181° |
| 2026-04-27 11:13 | 51.33490 | -119.22130 | 29381 ft | 453 kts | 181° |
| 2026-04-27 11:13 | 51.30331 | -119.22388 | 28512 ft | 454 kts | 181° |
| 2026-04-27 11:13 | 51.27177 | -119.22639 | 27681 ft | 454 kts | 181° |
| 2026-04-27 11:14 | 51.24028 | -119.22901 | 26896 ft | 453 kts | 182° |
| 2026-04-27 11:14 | 51.20881 | -119.23177 | 26201 ft | 450 kts | 182° |
| 2026-04-27 11:14 | 51.17776 | -119.23467 | 25593 ft | 444 kts | 182° |
| 2026-04-27 11:14 | 51.14710 | -119.23763 | 25020 ft | 439 kts | 182° |
| 2026-04-27 11:15 | 51.11678 | -119.24035 | 24404 ft | 434 kts | 181° |
| 2026-04-27 11:15 | 51.08678 | -119.24272 | 23828 ft | 430 kts | 181° |
| 2026-04-27 11:15 | 51.05702 | -119.24513 | 23224 ft | 426 kts | 182° |
| 2026-04-27 11:15 | 51.02757 | -119.24775 | 22554 ft | 422 kts | 182° |
| 2026-04-27 11:16 | 50.99845 | -119.25030 | 21930 ft | 416 kts | 182° |
| 2026-04-27 11:16 | 50.96964 | -119.25281 | 21311 ft | 412 kts | 182° |
| 2026-04-27 11:16 | 50.94150 | -119.25508 | 20724 ft | 408 kts | 182° |
| 2026-04-27 11:16 | 50.91327 | -119.25727 | 20162 ft | 404 kts | 182° |
| 2026-04-27 11:17 | 50.88530 | -119.25959 | 19562 ft | 400 kts | 183° |
| 2026-04-27 11:17 | 50.85761 | -119.26208 | 18992 ft | 396 kts | 183° |
| 2026-04-27 11:17 | 50.83019 | -119.26452 | 18430 ft | 393 kts | 183° |
| 2026-04-27 11:17 | 50.80299 | -119.26686 | 17822 ft | 389 kts | 183° |
| 2026-04-27 11:18 | 50.77612 | -119.26911 | 17224 ft | 383 kts | 183° |
| 2026-04-27 11:18 | 50.74960 | -119.27140 | 16652 ft | 379 kts | 183° |
| 2026-04-27 11:18 | 50.72343 | -119.27353 | 16080 ft | 374 kts | 183° |
| 2026-04-27 11:18 | 50.69754 | -119.27562 | 15475 ft | 371 kts | 184° |
| 2026-04-27 11:19 | 50.67227 | -119.27778 | 14984 ft | 365 kts | 184° |
| 2026-04-27 11:19 | 50.64702 | -119.27991 | 14461 ft | 362 kts | 184° |
| 2026-04-27 11:19 | 50.62200 | -119.28197 | 13933 ft | 358 kts | 184° |
| 2026-04-27 11:19 | 50.59725 | -119.28398 | 13369 ft | 354 kts | 184° |
| 2026-04-27 11:20 | 50.57277 | -119.28586 | 12810 ft | 350 kts | 184° |
| 2026-04-27 11:20 | 50.54865 | -119.28786 | 12279 ft | 345 kts | 185° |
| 2026-04-27 11:20 | 50.52484 | -119.29015 | 11752 ft | 341 kts | 185° |
| 2026-04-27 11:20 | 50.50134 | -119.29215 | 11205 ft | 336 kts | 184° |
| 2026-04-27 11:21 | 50.47804 | -119.29401 | 10792 ft | 329 kts | 184° |
| 2026-04-27 11:21 | 50.45555 | -119.29575 | 10555 ft | 319 kts | 184° |
| 2026-04-27 11:21 | 50.43375 | -119.29765 | 10285 ft | 306 kts | 185° |
| 2026-04-27 11:21 | 50.41400 | -119.29946 | 9993 ft | 275 kts | 185° |
| 2026-04-27 11:22 | 50.39484 | -119.30125 | 9612 ft | 276 kts | 185° |
| 2026-04-27 11:22 | 50.37572 | -119.30291 | 9277 ft | 274 kts | 184° |
| 2026-04-27 11:22 | 50.35673 | -119.30504 | 8940 ft | 271 kts | 192° |
| 2026-04-27 11:22 | 50.33992 | -119.31691 | 8633 ft | 264 kts | 217° |
| 2026-04-27 11:23 | 50.32499 | -119.33352 | 8310 ft | 263 kts | 218° |
| 2026-04-27 11:23 | 50.31046 | -119.35022 | 7996 ft | 261 kts | 219° |
| 2026-04-27 11:23 | 50.29604 | -119.36745 | 7684 ft | 260 kts | 219° |
| 2026-04-27 11:23 | 50.28173 | -119.38461 | 7380 ft | 259 kts | 219° |
| 2026-04-27 11:24 | 50.26750 | -119.40177 | 7081 ft | 258 kts | 219° |
| 2026-04-27 11:24 | 50.25249 | -119.41685 | 6771 ft | 258 kts | 199° |
| 2026-04-27 11:24 | 50.23484 | -119.41873 | 6489 ft | 256 kts | 172° |
| 2026-04-27 11:24 | 50.21723 | -119.41514 | 6190 ft | 255 kts | 174° |
| 2026-04-27 11:25 | 50.19958 | -119.41247 | 5873 ft | 254 kts | 174° |
| 2026-04-27 11:25 | 50.18206 | -119.40952 | 5654 ft | 251 kts | 173° |
| 2026-04-27 11:25 | 50.16499 | -119.40673 | 5349 ft | 241 kts | 173° |
| 2026-04-27 11:25 | 50.14872 | -119.40440 | 5126 ft | 229 kts | 174° |
| 2026-04-27 11:26 | 50.13311 | -119.40221 | 4905 ft | 222 kts | 174° |
| 2026-04-27 11:26 | 50.11771 | -119.40029 | 4615 ft | 222 kts | 173° |
| 2026-04-27 11:26 | 50.10235 | -119.39800 | 4340 ft | 220 kts | 174° |
| 2026-04-27 11:26 | 50.08725 | -119.39596 | 4065 ft | 216 kts | 175° |
| 2026-04-27 11:27 | 50.07262 | -119.39400 | 3776 ft | 213 kts | 175° |
| 2026-04-27 11:27 | 50.05829 | -119.39201 | 3513 ft | 198 kts | 175° |
| 2026-04-27 11:27 | 50.04525 | -119.39020 | 3230 ft | 180 kts | 175° |
| 2026-04-27 11:27 | 50.03328 | -119.38854 | 2961 ft | 165 kts | 175° |
| 2026-04-27 11:28 | 50.02226 | -119.38698 | 2709 ft | 152 kts | 175° |
| 2026-04-27 11:28 | 50.01223 | -119.38557 | 2502 ft | 139 kts | 174° |
| 2026-04-27 11:28 | 50.00293 | -119.38429 | 2292 ft | 131 kts | 175° |
| 2026-04-27 11:28 | 49.99373 | -119.38304 | 2041 ft | 132 kts | 175° |
| 2026-04-27 11:29 | 49.98467 | -119.38180 | 1851 ft | 130 kts | 174° |
| 2026-04-27 11:29 | 49.97574 | -119.38049 | 1675 ft | 127 kts | 174° |
| 2026-04-27 11:29 | 49.96714 | -119.37927 | 1480 ft | 123 kts | 174° |
| 2026-04-27 11:29 | 49.95900 | -119.37818 | 1423 ft | 106 kts | 175° |
| 2026-04-27 11:30 | 49.95292 | -119.37736 | 1419 ft | 65 kts | 175° |
| 2026-04-27 11:30 | 49.94996 | -119.37695 | 1420 ft | 27 kts | 175° |
| 2026-04-27 11:30 | 49.94840 | -119.37672 | 1422 ft | 19 kts | 174° |
| 2026-04-27 11:30 | 49.94769 | -119.37733 | 1421 ft | 13 kts | 292° |
| 2026-04-27 11:31 | 49.94839 | -119.37813 | 1420 ft | 12 kts | 350° |
| 2026-04-27 11:31 | 49.94921 | -119.37823 | 1420 ft | 12 kts | 355° |
| 2026-04-27 11:31 | 49.95013 | -119.37836 | 1420 ft | 14 kts | 354° |
| 2026-04-27 11:31 | 49.95115 | -119.37850 | 1423 ft | 14 kts | 348° |
| 2026-04-27 11:32 | 49.95180 | -119.37942 | 1422 ft | 11 kts | 345° |
| 2026-04-27 11:32 | 49.95253 | -119.37951 | 1421 ft | 9 kts | 341° |
| 2026-04-27 11:32 | 49.95278 | -119.38013 | 1420 ft | 4 kts | 288° |
| 2026-04-27 11:32 | 49.95281 | -119.38026 | 1421 ft | 0 kts | 288° |